sensor_id;sensor_type;location;lat;lon;timestamp;P1;durP1;ratioP1;P2;durP2;ratioP2
22040;SDS011;11184;52.444;13.578;2023-12-20T00:01:27;8.05;;;7.35;;
22040;SDS011;11184;52.444;13.578;2023-12-20T00:04:11;8.75;;;8.05;;
22040;SDS011;11184;52.444;13.578;2023-12-20T00:06:56;7.85;;;7.15;;
22040;SDS011;11184;52.444;13.578;2023-12-20T00:09:41;7.97;;;7.38;;
22040;SDS011;11184;52.444;13.578;2023-12-20T00:12:25;8.02;;;7.25;;
22040;SDS011;11184;52.444;13.578;2023-12-20T00:15:10;8.40;;;7.63;;
22040;SDS011;11184;52.444;13.578;2023-12-20T00:17:55;9.38;;;8.68;;
22040;SDS011;11184;52.444;13.578;2023-12-20T00:20:39;8.60;;;7.80;;
22040;SDS011;11184;52.444;13.578;2023-12-20T00:23:24;7.47;;;6.88;;
22040;SDS011;11184;52.444;13.578;2023-12-20T00:26:08;7.55;;;6.95;;
22040;SDS011;11184;52.444;13.578;2023-12-20T00:28:53;8.25;;;7.47;;
22040;SDS011;11184;52.444;13.578;2023-12-20T00:31:38;8.45;;;7.75;;
22040;SDS011;11184;52.444;13.578;2023-12-20T00:34:22;8.02;;;7.43;;
22040;SDS011;11184;52.444;13.578;2023-12-20T00:37:08;7.15;;;6.65;;
22040;SDS011;11184;52.444;13.578;2023-12-20T00:39:52;7.18;;;6.57;;
22040;SDS011;11184;52.444;13.578;2023-12-20T00:42:37;10.98;;;8.00;;
22040;SDS011;11184;52.444;13.578;2023-12-20T00:45:22;18.23;;;7.28;;
22040;SDS011;11184;52.444;13.578;2023-12-20T00:48:07;7.43;;;6.82;;
22040;SDS011;11184;52.444;13.578;2023-12-20T00:50:51;7.82;;;7.18;;
22040;SDS011;11184;52.444;13.578;2023-12-20T00:53:36;7.20;;;6.60;;
22040;SDS011;11184;52.444;13.578;2023-12-20T00:56:21;7.57;;;6.97;;
22040;SDS011;11184;52.444;13.578;2023-12-20T00:59:05;7.25;;;6.45;;
22040;SDS011;11184;52.444;13.578;2023-12-20T01:01:50;7.75;;;7.15;;
22040;SDS011;11184;52.444;13.578;2023-12-20T01:04:34;7.30;;;6.80;;
22040;SDS011;11184;52.444;13.578;2023-12-20T01:07:19;6.95;;;6.35;;
22040;SDS011;11184;52.444;13.578;2023-12-20T01:10:04;7.28;;;6.68;;
22040;SDS011;11184;52.444;13.578;2023-12-20T01:12:48;6.85;;;6.25;;
22040;SDS011;11184;52.444;13.578;2023-12-20T01:15:33;6.25;;;5.75;;
22040;SDS011;11184;52.444;13.578;2023-12-20T01:18:18;7.70;;;6.97;;
22040;SDS011;11184;52.444;13.578;2023-12-20T01:21:02;6.28;;;5.78;;
22040;SDS011;11184;52.444;13.578;2023-12-20T01:23:47;7.65;;;6.95;;
22040;SDS011;11184;52.444;13.578;2023-12-20T01:26:32;7.28;;;6.57;;
22040;SDS011;11184;52.444;13.578;2023-12-20T01:29:17;7.68;;;6.97;;
22040;SDS011;11184;52.444;13.578;2023-12-20T01:32:01;7.32;;;6.72;;
22040;SDS011;11184;52.444;13.578;2023-12-20T01:34:46;7.78;;;7.07;;
22040;SDS011;11184;52.444;13.578;2023-12-20T01:37:32;7.70;;;7.07;;
22040;SDS011;11184;52.444;13.578;2023-12-20T01:40:16;7.32;;;6.57;;
22040;SDS011;11184;52.444;13.578;2023-12-20T01:43:02;6.45;;;5.85;;
22040;SDS011;11184;52.444;13.578;2023-12-20T01:45:47;8.10;;;7.38;;
22040;SDS011;11184;52.444;13.578;2023-12-20T01:48:32;8.93;;;6.97;;
22040;SDS011;11184;52.444;13.578;2023-12-20T01:51:17;11.90;;;6.72;;
22040;SDS011;11184;52.444;13.578;2023-12-20T01:54:01;9.57;;;6.57;;
22040;SDS011;11184;52.444;13.578;2023-12-20T01:56:46;8.43;;;7.65;;
22040;SDS011;11184;52.444;13.578;2023-12-20T01:59:31;8.25;;;7.43;;
22040;SDS011;11184;52.444;13.578;2023-12-20T02:02:16;8.30;;;7.35;;
22040;SDS011;11184;52.444;13.578;2023-12-20T02:05:01;8.75;;;8.05;;
22040;SDS011;11184;52.444;13.578;2023-12-20T02:07:46;7.40;;;6.70;;
22040;SDS011;11184;52.444;13.578;2023-12-20T02:10:31;7.40;;;6.68;;
22040;SDS011;11184;52.444;13.578;2023-12-20T02:13:16;6.80;;;6.13;;
22040;SDS011;11184;52.444;13.578;2023-12-20T02:16:00;10.05;;;6.88;;
22040;SDS011;11184;52.444;13.578;2023-12-20T02:18:45;8.18;;;7.38;;
22040;SDS011;11184;52.444;13.578;2023-12-20T02:21:33;8.02;;;7.03;;
22040;SDS011;11184;52.444;13.578;2023-12-20T02:24:21;8.52;;;6.85;;
22040;SDS011;11184;52.444;13.578;2023-12-20T02:27:06;7.80;;;7.10;;
22040;SDS011;11184;52.444;13.578;2023-12-20T02:29:51;6.43;;;5.90;;
22040;SDS011;11184;52.444;13.578;2023-12-20T02:32:35;7.50;;;5.97;;
22040;SDS011;11184;52.444;13.578;2023-12-20T02:35:20;7.00;;;6.50;;
22040;SDS011;11184;52.444;13.578;2023-12-20T02:38:04;6.13;;;5.57;;
22040;SDS011;11184;52.444;13.578;2023-12-20T02:40:49;6.50;;;5.90;;
22040;SDS011;11184;52.444;13.578;2023-12-20T02:43:33;6.70;;;6.13;;
22040;SDS011;11184;52.444;13.578;2023-12-20T02:46:18;7.32;;;6.72;;
22040;SDS011;11184;52.444;13.578;2023-12-20T02:49:03;7.80;;;7.20;;
22040;SDS011;11184;52.444;13.578;2023-12-20T02:51:47;6.95;;;6.40;;
22040;SDS011;11184;52.444;13.578;2023-12-20T02:54:32;7.05;;;6.45;;
22040;SDS011;11184;52.444;13.578;2023-12-20T02:57:16;7.40;;;6.68;;
22040;SDS011;11184;52.444;13.578;2023-12-20T03:00:01;7.15;;;6.55;;
22040;SDS011;11184;52.444;13.578;2023-12-20T03:02:46;7.97;;;7.18;;
22040;SDS011;11184;52.444;13.578;2023-12-20T03:05:30;7.70;;;7.10;;
22040;SDS011;11184;52.444;13.578;2023-12-20T03:08:15;8.50;;;7.80;;
22040;SDS011;11184;52.444;13.578;2023-12-20T03:10:59;9.07;;;8.27;;
22040;SDS011;11184;52.444;13.578;2023-12-20T03:13:44;7.57;;;6.97;;
22040;SDS011;11184;52.444;13.578;2023-12-20T03:16:28;7.55;;;6.88;;
22040;SDS011;11184;52.444;13.578;2023-12-20T03:19:15;8.43;;;7.00;;
22040;SDS011;11184;52.444;13.578;2023-12-20T03:22:00;8.98;;;8.02;;
22040;SDS011;11184;52.444;13.578;2023-12-20T03:24:44;7.43;;;6.82;;
22040;SDS011;11184;52.444;13.578;2023-12-20T03:27:29;6.90;;;6.38;;
22040;SDS011;11184;52.444;13.578;2023-12-20T03:30:13;7.63;;;6.82;;
22040;SDS011;11184;52.444;13.578;2023-12-20T03:32:58;8.07;;;5.57;;
22040;SDS011;11184;52.444;13.578;2023-12-20T03:35:43;8.32;;;5.53;;
22040;SDS011;11184;52.444;13.578;2023-12-20T03:38:27;5.35;;;4.85;;
22040;SDS011;11184;52.444;13.578;2023-12-20T03:41:13;6.18;;;4.70;;
22040;SDS011;11184;52.444;13.578;2023-12-20T03:43:58;6.28;;;3.85;;
22040;SDS011;11184;52.444;13.578;2023-12-20T03:46:43;5.65;;;4.13;;
22040;SDS011;11184;52.444;13.578;2023-12-20T03:49:29;6.90;;;4.15;;
22040;SDS011;11184;52.444;13.578;2023-12-20T03:52:13;7.80;;;3.50;;
22040;SDS011;11184;52.444;13.578;2023-12-20T03:54:58;9.20;;;4.13;;
22040;SDS011;11184;52.444;13.578;2023-12-20T03:57:42;5.35;;;4.25;;
22040;SDS011;11184;52.444;13.578;2023-12-20T04:00:27;6.13;;;3.35;;
22040;SDS011;11184;52.444;13.578;2023-12-20T04:03:12;7.35;;;3.75;;
22040;SDS011;11184;52.444;13.578;2023-12-20T04:05:57;9.30;;;2.75;;
22040;SDS011;11184;52.444;13.578;2023-12-20T04:08:42;4.85;;;2.90;;
22040;SDS011;11184;52.444;13.578;2023-12-20T04:11:26;6.45;;;3.85;;
22040;SDS011;11184;52.444;13.578;2023-12-20T04:14:11;5.80;;;1.98;;
22040;SDS011;11184;52.444;13.578;2023-12-20T04:16:56;5.32;;;2.63;;
22040;SDS011;11184;52.444;13.578;2023-12-20T04:19:40;6.65;;;2.55;;
22040;SDS011;11184;52.444;13.578;2023-12-20T04:22:25;5.55;;;2.45;;
22040;SDS011;11184;52.444;13.578;2023-12-20T04:25:09;9.00;;;1.77;;
22040;SDS011;11184;52.444;13.578;2023-12-20T04:27:54;6.65;;;2.70;;
22040;SDS011;11184;52.444;13.578;2023-12-20T04:30:38;11.27;;;3.10;;
22040;SDS011;11184;52.444;13.578;2023-12-20T04:33:23;8.00;;;2.28;;
22040;SDS011;11184;52.444;13.578;2023-12-20T04:36:08;10.20;;;2.35;;
22040;SDS011;11184;52.444;13.578;2023-12-20T04:38:53;10.05;;;3.22;;
22040;SDS011;11184;52.444;13.578;2023-12-20T04:41:38;3.97;;;2.28;;
22040;SDS011;11184;52.444;13.578;2023-12-20T04:44:22;4.72;;;2.10;;
22040;SDS011;11184;52.444;13.578;2023-12-20T04:47:07;7.40;;;2.95;;
22040;SDS011;11184;52.444;13.578;2023-12-20T04:49:51;4.72;;;2.03;;
22040;SDS011;11184;52.444;13.578;2023-12-20T04:52:36;8.48;;;3.10;;
22040;SDS011;11184;52.444;13.578;2023-12-20T04:55:20;8.27;;;2.08;;
22040;SDS011;11184;52.444;13.578;2023-12-20T04:58:05;8.40;;;1.80;;
22040;SDS011;11184;52.444;13.578;2023-12-20T05:00:50;5.82;;;1.85;;
22040;SDS011;11184;52.444;13.578;2023-12-20T05:03:34;12.98;;;2.63;;
22040;SDS011;11184;52.444;13.578;2023-12-20T05:06:19;10.07;;;2.50;;
22040;SDS011;11184;52.444;13.578;2023-12-20T05:09:04;7.50;;;3.42;;
22040;SDS011;11184;52.444;13.578;2023-12-20T05:11:49;10.95;;;3.15;;
22040;SDS011;11184;52.444;13.578;2023-12-20T05:14:33;7.80;;;3.63;;
22040;SDS011;11184;52.444;13.578;2023-12-20T05:17:18;9.13;;;3.08;;
22040;SDS011;11184;52.444;13.578;2023-12-20T05:20:04;8.20;;;2.88;;
22040;SDS011;11184;52.444;13.578;2023-12-20T05:22:49;12.23;;;3.80;;
22040;SDS011;11184;52.444;13.578;2023-12-20T05:25:33;6.35;;;2.85;;
22040;SDS011;11184;52.444;13.578;2023-12-20T05:28:18;10.38;;;2.92;;
22040;SDS011;11184;52.444;13.578;2023-12-20T05:31:03;13.32;;;2.85;;
22040;SDS011;11184;52.444;13.578;2023-12-20T05:33:47;7.53;;;2.83;;
22040;SDS011;11184;52.444;13.578;2023-12-20T05:36:32;5.65;;;1.85;;
22040;SDS011;11184;52.444;13.578;2023-12-20T05:39:16;6.47;;;2.03;;
22040;SDS011;11184;52.444;13.578;2023-12-20T05:42:01;3.95;;;2.47;;
22040;SDS011;11184;52.444;13.578;2023-12-20T05:44:45;4.18;;;2.00;;
22040;SDS011;11184;52.444;13.578;2023-12-20T05:47:30;14.68;;;2.33;;
22040;SDS011;11184;52.444;13.578;2023-12-20T05:50:15;4.90;;;1.73;;
22040;SDS011;11184;52.444;13.578;2023-12-20T05:52:59;11.55;;;2.13;;
22040;SDS011;11184;52.444;13.578;2023-12-20T05:55:44;10.90;;;2.45;;
22040;SDS011;11184;52.444;13.578;2023-12-20T05:58:28;3.80;;;1.77;;
22040;SDS011;11184;52.444;13.578;2023-12-20T06:01:16;9.35;;;1.60;;
22040;SDS011;11184;52.444;13.578;2023-12-20T06:04:01;8.35;;;2.58;;
22040;SDS011;11184;52.444;13.578;2023-12-20T06:06:46;5.93;;;2.38;;
22040;SDS011;11184;52.444;13.578;2023-12-20T06:09:31;8.60;;;2.55;;
22040;SDS011;11184;52.444;13.578;2023-12-20T06:12:15;6.57;;;2.13;;
22040;SDS011;11184;52.444;13.578;2023-12-20T06:15:00;8.90;;;1.90;;
22040;SDS011;11184;52.444;13.578;2023-12-20T06:17:45;6.32;;;2.38;;
22040;SDS011;11184;52.444;13.578;2023-12-20T06:20:30;8.55;;;2.17;;
22040;SDS011;11184;52.444;13.578;2023-12-20T06:23:15;15.05;;;3.45;;
22040;SDS011;11184;52.444;13.578;2023-12-20T06:25:59;8.05;;;2.35;;
22040;SDS011;11184;52.444;13.578;2023-12-20T06:28:44;12.65;;;1.90;;
22040;SDS011;11184;52.444;13.578;2023-12-20T06:31:29;13.07;;;2.83;;
22040;SDS011;11184;52.444;13.578;2023-12-20T06:34:16;15.85;;;2.47;;
22040;SDS011;11184;52.444;13.578;2023-12-20T06:37:00;5.38;;;2.17;;
22040;SDS011;11184;52.444;13.578;2023-12-20T06:39:45;6.97;;;2.85;;
22040;SDS011;11184;52.444;13.578;2023-12-20T06:42:30;7.93;;;2.40;;
22040;SDS011;11184;52.444;13.578;2023-12-20T06:45:15;17.50;;;3.92;;
22040;SDS011;11184;52.444;13.578;2023-12-20T06:48:00;15.70;;;2.80;;
22040;SDS011;11184;52.444;13.578;2023-12-20T06:50:44;6.00;;;2.30;;
22040;SDS011;11184;52.444;13.578;2023-12-20T06:53:29;10.32;;;2.65;;
22040;SDS011;11184;52.444;13.578;2023-12-20T06:56:14;7.82;;;3.30;;
22040;SDS011;11184;52.444;13.578;2023-12-20T06:59:00;13.25;;;3.38;;
22040;SDS011;11184;52.444;13.578;2023-12-20T07:01:47;12.93;;;3.88;;
22040;SDS011;11184;52.444;13.578;2023-12-20T07:04:32;15.77;;;4.88;;
22040;SDS011;11184;52.444;13.578;2023-12-20T07:07:17;13.27;;;3.15;;
22040;SDS011;11184;52.444;13.578;2023-12-20T07:10:01;9.82;;;4.10;;
22040;SDS011;11184;52.444;13.578;2023-12-20T07:12:47;15.77;;;3.42;;
22040;SDS011;11184;52.444;13.578;2023-12-20T07:15:32;6.07;;;3.38;;
22040;SDS011;11184;52.444;13.578;2023-12-20T07:18:17;8.05;;;3.55;;
22040;SDS011;11184;52.444;13.578;2023-12-20T07:21:01;13.27;;;3.25;;
22040;SDS011;11184;52.444;13.578;2023-12-20T07:23:46;13.20;;;3.28;;
22040;SDS011;11184;52.444;13.578;2023-12-20T07:26:31;9.88;;;3.72;;
22040;SDS011;11184;52.444;13.578;2023-12-20T07:29:16;9.00;;;2.78;;
22040;SDS011;11184;52.444;13.578;2023-12-20T07:32:00;13.98;;;3.70;;
22040;SDS011;11184;52.444;13.578;2023-12-20T07:34:45;8.52;;;2.63;;
22040;SDS011;11184;52.444;13.578;2023-12-20T07:37:30;17.70;;;2.85;;
22040;SDS011;11184;52.444;13.578;2023-12-20T07:40:15;8.70;;;2.80;;
22040;SDS011;11184;52.444;13.578;2023-12-20T07:43:03;7.60;;;2.13;;
22040;SDS011;11184;52.444;13.578;2023-12-20T07:45:47;7.95;;;2.38;;
22040;SDS011;11184;52.444;13.578;2023-12-20T07:48:33;11.63;;;2.45;;
22040;SDS011;11184;52.444;13.578;2023-12-20T07:51:19;10.77;;;2.85;;
22040;SDS011;11184;52.444;13.578;2023-12-20T07:54:04;10.68;;;2.92;;
22040;SDS011;11184;52.444;13.578;2023-12-20T07:56:52;6.72;;;2.28;;
22040;SDS011;11184;52.444;13.578;2023-12-20T07:59:37;8.27;;;3.03;;
22040;SDS011;11184;52.444;13.578;2023-12-20T08:02:21;10.00;;;2.70;;
22040;SDS011;11184;52.444;13.578;2023-12-20T08:05:06;9.07;;;2.65;;
22040;SDS011;11184;52.444;13.578;2023-12-20T08:07:51;9.80;;;3.30;;
22040;SDS011;11184;52.444;13.578;2023-12-20T08:10:36;9.40;;;2.10;;
22040;SDS011;11184;52.444;13.578;2023-12-20T08:13:20;6.85;;;1.73;;
22040;SDS011;11184;52.444;13.578;2023-12-20T08:16:09;13.82;;;3.08;;
22040;SDS011;11184;52.444;13.578;2023-12-20T08:18:57;9.90;;;2.67;;
22040;SDS011;11184;52.444;13.578;2023-12-20T08:21:41;11.32;;;2.92;;
22040;SDS011;11184;52.444;13.578;2023-12-20T08:24:26;15.50;;;3.72;;
22040;SDS011;11184;52.444;13.578;2023-12-20T08:27:10;7.45;;;2.83;;
22040;SDS011;11184;52.444;13.578;2023-12-20T08:29:55;11.77;;;3.15;;
22040;SDS011;11184;52.444;13.578;2023-12-20T08:32:39;17.75;;;2.60;;
22040;SDS011;11184;52.444;13.578;2023-12-20T08:35:24;12.23;;;2.42;;
22040;SDS011;11184;52.444;13.578;2023-12-20T08:38:09;9.70;;;2.95;;
22040;SDS011;11184;52.444;13.578;2023-12-20T08:40:53;9.82;;;2.95;;
22040;SDS011;11184;52.444;13.578;2023-12-20T08:43:38;7.20;;;2.30;;
22040;SDS011;11184;52.444;13.578;2023-12-20T08:46:25;7.22;;;2.58;;
22040;SDS011;11184;52.444;13.578;2023-12-20T08:49:10;8.27;;;2.83;;
22040;SDS011;11184;52.444;13.578;2023-12-20T08:51:55;14.55;;;2.47;;
22040;SDS011;11184;52.444;13.578;2023-12-20T08:54:39;5.43;;;2.28;;
22040;SDS011;11184;52.444;13.578;2023-12-20T08:57:24;9.25;;;2.30;;
22040;SDS011;11184;52.444;13.578;2023-12-20T09:00:08;6.63;;;2.00;;
22040;SDS011;11184;52.444;13.578;2023-12-20T09:02:54;10.63;;;3.20;;
22040;SDS011;11184;52.444;13.578;2023-12-20T09:05:39;9.30;;;3.30;;
22040;SDS011;11184;52.444;13.578;2023-12-20T09:08:23;12.30;;;2.88;;
22040;SDS011;11184;52.444;13.578;2023-12-20T09:11:07;11.77;;;3.03;;
22040;SDS011;11184;52.444;13.578;2023-12-20T09:13:52;3.45;;;2.15;;
22040;SDS011;11184;52.444;13.578;2023-12-20T09:16:37;10.60;;;2.22;;
22040;SDS011;11184;52.444;13.578;2023-12-20T09:19:21;6.70;;;2.38;;
22040;SDS011;11184;52.444;13.578;2023-12-20T09:22:06;10.20;;;2.58;;
22040;SDS011;11184;52.444;13.578;2023-12-20T09:24:51;10.52;;;3.25;;
22040;SDS011;11184;52.444;13.578;2023-12-20T09:27:35;14.20;;;3.20;;
22040;SDS011;11184;52.444;13.578;2023-12-20T09:30:20;6.13;;;2.38;;
22040;SDS011;11184;52.444;13.578;2023-12-20T09:33:04;14.27;;;2.75;;
22040;SDS011;11184;52.444;13.578;2023-12-20T09:35:50;6.05;;;1.98;;
22040;SDS011;11184;52.444;13.578;2023-12-20T09:38:35;11.00;;;3.30;;
22040;SDS011;11184;52.444;13.578;2023-12-20T09:41:19;6.75;;;2.45;;
22040;SDS011;11184;52.444;13.578;2023-12-20T09:44:04;9.60;;;2.70;;
22040;SDS011;11184;52.444;13.578;2023-12-20T09:46:49;6.90;;;2.22;;
22040;SDS011;11184;52.444;13.578;2023-12-20T09:49:34;7.65;;;2.85;;
22040;SDS011;11184;52.444;13.578;2023-12-20T09:52:19;3.58;;;1.80;;
22040;SDS011;11184;52.444;13.578;2023-12-20T09:55:05;6.07;;;2.15;;
22040;SDS011;11184;52.444;13.578;2023-12-20T09:57:51;7.18;;;2.08;;
22040;SDS011;11184;52.444;13.578;2023-12-20T10:00:36;7.65;;;2.00;;
22040;SDS011;11184;52.444;13.578;2023-12-20T10:03:25;9.75;;;1.48;;
22040;SDS011;11184;52.444;13.578;2023-12-20T10:06:09;9.55;;;2.17;;
22040;SDS011;11184;52.444;13.578;2023-12-20T10:08:55;7.18;;;2.33;;
22040;SDS011;11184;52.444;13.578;2023-12-20T10:11:39;7.10;;;3.13;;
22040;SDS011;11184;52.444;13.578;2023-12-20T10:14:24;8.52;;;2.35;;
22040;SDS011;11184;52.444;13.578;2023-12-20T10:17:09;8.32;;;2.92;;
22040;SDS011;11184;52.444;13.578;2023-12-20T10:19:54;8.10;;;2.55;;
22040;SDS011;11184;52.444;13.578;2023-12-20T10:22:39;13.52;;;2.60;;
22040;SDS011;11184;52.444;13.578;2023-12-20T10:25:24;8.05;;;1.70;;
22040;SDS011;11184;52.444;13.578;2023-12-20T10:28:10;4.82;;;2.08;;
22040;SDS011;11184;52.444;13.578;2023-12-20T10:30:54;13.93;;;3.55;;
22040;SDS011;11184;52.444;13.578;2023-12-20T10:33:42;6.00;;;2.13;;
22040;SDS011;11184;52.444;13.578;2023-12-20T10:36:30;12.00;;;3.42;;
22040;SDS011;11184;52.444;13.578;2023-12-20T10:39:15;8.00;;;3.45;;
22040;SDS011;11184;52.444;13.578;2023-12-20T10:42:00;8.88;;;2.50;;
22040;SDS011;11184;52.444;13.578;2023-12-20T10:44:44;9.05;;;2.63;;
22040;SDS011;11184;52.444;13.578;2023-12-20T10:47:30;9.13;;;2.15;;
22040;SDS011;11184;52.444;13.578;2023-12-20T10:50:15;7.80;;;2.03;;
22040;SDS011;11184;52.444;13.578;2023-12-20T10:53:00;11.73;;;3.03;;
22040;SDS011;11184;52.444;13.578;2023-12-20T10:55:45;8.20;;;2.13;;
22040;SDS011;11184;52.444;13.578;2023-12-20T10:58:30;6.38;;;2.45;;
22040;SDS011;11184;52.444;13.578;2023-12-20T11:01:17;5.25;;;3.10;;
22040;SDS011;11184;52.444;13.578;2023-12-20T11:04:01;10.27;;;3.05;;
22040;SDS011;11184;52.444;13.578;2023-12-20T11:06:54;5.55;;;2.55;;
22040;SDS011;11184;52.444;13.578;2023-12-20T11:09:42;12.07;;;2.00;;
22040;SDS011;11184;52.444;13.578;2023-12-20T11:15:12;10.30;;;2.35;;
22040;SDS011;11184;52.444;13.578;2023-12-20T11:17:58;11.57;;;2.80;;
22040;SDS011;11184;52.444;13.578;2023-12-20T11:20:43;4.70;;;1.92;;
22040;SDS011;11184;52.444;13.578;2023-12-20T11:23:29;6.75;;;2.72;;
22040;SDS011;11184;52.444;13.578;2023-12-20T11:26:15;5.80;;;2.03;;
22040;SDS011;11184;52.444;13.578;2023-12-20T11:32:27;14.05;;;2.90;;
22040;SDS011;11184;52.444;13.578;2023-12-20T11:37:57;11.02;;;3.17;;
22040;SDS011;11184;52.444;13.578;2023-12-20T11:40:42;6.65;;;2.58;;
22040;SDS011;11184;52.444;13.578;2023-12-20T11:43:36;4.93;;;1.77;;
22040;SDS011;11184;52.444;13.578;2023-12-20T11:46:21;8.45;;;2.58;;
22040;SDS011;11184;52.444;13.578;2023-12-20T11:49:06;11.27;;;2.42;;
22040;SDS011;11184;52.444;13.578;2023-12-20T11:51:51;4.30;;;1.95;;
22040;SDS011;11184;52.444;13.578;2023-12-20T11:54:35;5.13;;;2.08;;
22040;SDS011;11184;52.444;13.578;2023-12-20T11:57:20;9.13;;;2.83;;
22040;SDS011;11184;52.444;13.578;2023-12-20T12:00:05;8.48;;;2.60;;
22040;SDS011;11184;52.444;13.578;2023-12-20T12:03:00;13.10;;;2.08;;
22040;SDS011;11184;52.444;13.578;2023-12-20T12:05:49;7.40;;;2.85;;
22040;SDS011;11184;52.444;13.578;2023-12-20T12:08:35;8.75;;;2.85;;
22040;SDS011;11184;52.444;13.578;2023-12-20T12:11:21;4.53;;;1.90;;
22040;SDS011;11184;52.444;13.578;2023-12-20T12:14:06;6.00;;;1.98;;
22040;SDS011;11184;52.444;13.578;2023-12-20T12:16:51;12.15;;;5.47;;
22040;SDS011;11184;52.444;13.578;2023-12-20T12:19:37;5.32;;;1.35;;
22040;SDS011;11184;52.444;13.578;2023-12-20T12:22:21;7.75;;;3.42;;
22040;SDS011;11184;52.444;13.578;2023-12-20T12:25:10;14.80;;;2.70;;
22040;SDS011;11184;52.444;13.578;2023-12-20T12:27:56;7.57;;;2.22;;
22040;SDS011;11184;52.444;13.578;2023-12-20T12:30:40;6.60;;;1.52;;
22040;SDS011;11184;52.444;13.578;2023-12-20T12:33:25;8.75;;;2.65;;
22040;SDS011;11184;52.444;13.578;2023-12-20T12:36:10;10.73;;;1.65;;
22040;SDS011;11184;52.444;13.578;2023-12-20T12:38:56;5.10;;;2.72;;
22040;SDS011;11184;52.444;13.578;2023-12-20T12:41:41;4.82;;;1.85;;
22040;SDS011;11184;52.444;13.578;2023-12-20T12:44:26;3.70;;;1.48;;
22040;SDS011;11184;52.444;13.578;2023-12-20T12:47:10;6.22;;;2.35;;
22040;SDS011;11184;52.444;13.578;2023-12-20T12:49:55;7.22;;;2.15;;
22040;SDS011;11184;52.444;13.578;2023-12-20T12:52:40;5.03;;;2.17;;
22040;SDS011;11184;52.444;13.578;2023-12-20T12:55:24;6.95;;;3.22;;
22040;SDS011;11184;52.444;13.578;2023-12-20T12:58:09;7.45;;;2.03;;
22040;SDS011;11184;52.444;13.578;2023-12-20T13:00:54;4.70;;;2.30;;
22040;SDS011;11184;52.444;13.578;2023-12-20T13:03:39;5.57;;;2.65;;
22040;SDS011;11184;52.444;13.578;2023-12-20T13:06:24;7.47;;;2.67;;
22040;SDS011;11184;52.444;13.578;2023-12-20T13:09:08;7.97;;;2.55;;
22040;SDS011;11184;52.444;13.578;2023-12-20T13:11:53;3.42;;;2.17;;
22040;SDS011;11184;52.444;13.578;2023-12-20T13:14:37;13.30;;;3.63;;
22040;SDS011;11184;52.444;13.578;2023-12-20T13:17:22;11.90;;;3.13;;
22040;SDS011;11184;52.444;13.578;2023-12-20T13:20:07;4.70;;;1.83;;
22040;SDS011;11184;52.444;13.578;2023-12-20T13:22:52;7.10;;;3.72;;
22040;SDS011;11184;52.444;13.578;2023-12-20T13:25:36;6.25;;;2.22;;
22040;SDS011;11184;52.444;13.578;2023-12-20T13:28:21;4.57;;;2.55;;
22040;SDS011;11184;52.444;13.578;2023-12-20T13:31:06;7.07;;;2.83;;
22040;SDS011;11184;52.444;13.578;2023-12-20T13:33:50;9.57;;;3.03;;
22040;SDS011;11184;52.444;13.578;2023-12-20T13:36:35;8.07;;;3.42;;
22040;SDS011;11184;52.444;13.578;2023-12-20T13:39:20;7.22;;;3.50;;
22040;SDS011;11184;52.444;13.578;2023-12-20T13:42:05;6.32;;;3.42;;
22040;SDS011;11184;52.444;13.578;2023-12-20T13:44:50;5.35;;;2.28;;
22040;SDS011;11184;52.444;13.578;2023-12-20T13:47:35;6.45;;;2.78;;
22040;SDS011;11184;52.444;13.578;2023-12-20T13:50:20;6.85;;;2.30;;
22040;SDS011;11184;52.444;13.578;2023-12-20T13:53:05;7.18;;;2.20;;
22040;SDS011;11184;52.444;13.578;2023-12-20T13:55:50;6.15;;;1.80;;
22040;SDS011;11184;52.444;13.578;2023-12-20T13:58:35;3.85;;;1.60;;
22040;SDS011;11184;52.444;13.578;2023-12-20T14:01:19;3.15;;;2.40;;
22040;SDS011;11184;52.444;13.578;2023-12-20T14:04:04;1.52;;;1.23;;
22040;SDS011;11184;52.444;13.578;2023-12-20T14:06:48;4.43;;;1.58;;
22040;SDS011;11184;52.444;13.578;2023-12-20T14:09:33;4.95;;;1.25;;
22040;SDS011;11184;52.444;13.578;2023-12-20T14:12:18;4.07;;;1.42;;
22040;SDS011;11184;52.444;13.578;2023-12-20T14:15:04;3.60;;;1.67;;
22040;SDS011;11184;52.444;13.578;2023-12-20T14:17:52;6.18;;;1.75;;
22040;SDS011;11184;52.444;13.578;2023-12-20T14:20:38;7.38;;;2.40;;
22040;SDS011;11184;52.444;13.578;2023-12-20T14:23:23;3.00;;;1.20;;
22040;SDS011;11184;52.444;13.578;2023-12-20T14:26:08;2.13;;;1.17;;
22040;SDS011;11184;52.444;13.578;2023-12-20T14:28:57;2.95;;;1.05;;
22040;SDS011;11184;52.444;13.578;2023-12-20T14:31:42;2.63;;;0.82;;
22040;SDS011;11184;52.444;13.578;2023-12-20T14:34:26;0.70;;;0.70;;
22040;SDS011;11184;52.444;13.578;2023-12-20T14:37:11;3.33;;;1.13;;
22040;SDS011;11184;52.444;13.578;2023-12-20T14:39:56;1.83;;;0.80;;
22040;SDS011;11184;52.444;13.578;2023-12-20T14:42:41;2.28;;;0.93;;
22040;SDS011;11184;52.444;13.578;2023-12-20T14:45:25;5.70;;;4.05;;
22040;SDS011;11184;52.444;13.578;2023-12-20T14:48:11;1.40;;;0.98;;
22040;SDS011;11184;52.444;13.578;2023-12-20T14:50:55;1.38;;;1.02;;
22040;SDS011;11184;52.444;13.578;2023-12-20T14:53:40;2.92;;;1.17;;
22040;SDS011;11184;52.444;13.578;2023-12-20T14:56:25;6.25;;;1.55;;
22040;SDS011;11184;52.444;13.578;2023-12-20T14:59:10;1.42;;;0.90;;
22040;SDS011;11184;52.444;13.578;2023-12-20T15:01:55;1.98;;;1.17;;
22040;SDS011;11184;52.444;13.578;2023-12-20T15:04:39;2.92;;;1.63;;
22040;SDS011;11184;52.444;13.578;2023-12-20T15:07:24;3.42;;;1.05;;
22040;SDS011;11184;52.444;13.578;2023-12-20T15:10:09;3.78;;;1.60;;
22040;SDS011;11184;52.444;13.578;2023-12-20T15:12:53;2.00;;;1.13;;
22040;SDS011;11184;52.444;13.578;2023-12-20T15:15:39;3.10;;;1.52;;
22040;SDS011;11184;52.444;13.578;2023-12-20T15:18:24;3.53;;;1.52;;
22040;SDS011;11184;52.444;13.578;2023-12-20T15:21:08;5.85;;;2.13;;
22040;SDS011;11184;52.444;13.578;2023-12-20T15:23:53;2.80;;;1.77;;
22040;SDS011;11184;52.444;13.578;2023-12-20T15:26:38;2.13;;;1.33;;
22040;SDS011;11184;52.444;13.578;2023-12-20T15:29:23;2.90;;;1.48;;
22040;SDS011;11184;52.444;13.578;2023-12-20T15:32:07;2.17;;;1.95;;
22040;SDS011;11184;52.444;13.578;2023-12-20T15:34:52;6.28;;;1.92;;
22040;SDS011;11184;52.444;13.578;2023-12-20T15:37:39;4.78;;;1.52;;
22040;SDS011;11184;52.444;13.578;2023-12-20T15:40:24;3.72;;;1.20;;
22040;SDS011;11184;52.444;13.578;2023-12-20T15:43:09;2.13;;;1.70;;
22040;SDS011;11184;52.444;13.578;2023-12-20T15:45:53;4.15;;;1.77;;
22040;SDS011;11184;52.444;13.578;2023-12-20T15:48:38;3.25;;;1.30;;
22040;SDS011;11184;52.444;13.578;2023-12-20T15:51:23;4.50;;;1.50;;
22040;SDS011;11184;52.444;13.578;2023-12-20T15:54:08;3.38;;;1.33;;
22040;SDS011;11184;52.444;13.578;2023-12-20T15:56:52;8.43;;;2.13;;
22040;SDS011;11184;52.444;13.578;2023-12-20T15:59:37;8.70;;;2.33;;
22040;SDS011;11184;52.444;13.578;2023-12-20T16:02:21;4.65;;;1.30;;
22040;SDS011;11184;52.444;13.578;2023-12-20T16:05:06;5.60;;;1.60;;
22040;SDS011;11184;52.444;13.578;2023-12-20T16:07:51;4.82;;;1.45;;
22040;SDS011;11184;52.444;13.578;2023-12-20T16:10:35;1.92;;;1.33;;
22040;SDS011;11184;52.444;13.578;2023-12-20T16:13:20;2.83;;;1.40;;
22040;SDS011;11184;52.444;13.578;2023-12-20T16:16:05;4.63;;;1.40;;
22040;SDS011;11184;52.444;13.578;2023-12-20T16:18:49;2.78;;;1.15;;
22040;SDS011;11184;52.444;13.578;2023-12-20T16:21:34;5.68;;;1.92;;
22040;SDS011;11184;52.444;13.578;2023-12-20T16:24:18;4.57;;;1.83;;